sensor_id;sensor_type;location;lat;lon;timestamp;P1;durP1;ratioP1;P2;durP2;ratioP2
50355;SDS011;36264;51.296;-0.602;2023-08-21T00:01:58;4.45;;;2.00;;
50355;SDS011;36264;51.296;-0.602;2023-08-21T00:04:23;6.68;;;1.90;;
50355;SDS011;36264;51.296;-0.602;2023-08-21T00:06:49;3.60;;;2.00;;
50355;SDS011;36264;51.296;-0.602;2023-08-21T00:09:14;6.80;;;2.30;;
50355;SDS011;36264;51.296;-0.602;2023-08-21T00:11:39;3.70;;;2.20;;
50355;SDS011;36264;51.296;-0.602;2023-08-21T00:14:05;4.95;;;2.20;;
50355;SDS011;36264;51.296;-0.602;2023-08-21T00:16:31;4.32;;;2.20;;
50355;SDS011;36264;51.296;-0.602;2023-08-21T00:18:56;5.22;;;2.05;;
50355;SDS011;36264;51.296;-0.602;2023-08-21T00:21:22;4.72;;;2.20;;
50355;SDS011;36264;51.296;-0.602;2023-08-21T00:23:47;4.90;;;2.00;;
50355;SDS011;36264;51.296;-0.602;2023-08-21T00:26:13;5.47;;;2.30;;
50355;SDS011;36264;51.296;-0.602;2023-08-21T00:28:38;6.63;;;2.28;;
50355;SDS011;36264;51.296;-0.602;2023-08-21T00:31:04;5.80;;;2.70;;
50355;SDS011;36264;51.296;-0.602;2023-08-21T00:33:30;4.70;;;2.15;;
50355;SDS011;36264;51.296;-0.602;2023-08-21T00:35:56;3.78;;;2.13;;
50355;SDS011;36264;51.296;-0.602;2023-08-21T00:38:22;3.80;;;2.08;;
50355;SDS011;36264;51.296;-0.602;2023-08-21T00:40:48;5.03;;;2.10;;
50355;SDS011;36264;51.296;-0.602;2023-08-21T00:43:13;3.30;;;1.80;;
50355;SDS011;36264;51.296;-0.602;2023-08-21T00:45:39;2.97;;;1.70;;
50355;SDS011;36264;51.296;-0.602;2023-08-21T00:48:07;4.28;;;2.00;;
50355;SDS011;36264;51.296;-0.602;2023-08-21T00:50:33;3.88;;;2.17;;
50355;SDS011;36264;51.296;-0.602;2023-08-21T00:52:58;3.03;;;1.70;;
50355;SDS011;36264;51.296;-0.602;2023-08-21T00:55:24;4.85;;;2.47;;
50355;SDS011;36264;51.296;-0.602;2023-08-21T00:57:49;4.60;;;2.00;;
50355;SDS011;36264;51.296;-0.602;2023-08-21T01:00:15;3.17;;;1.90;;
50355;SDS011;36264;51.296;-0.602;2023-08-21T01:02:40;4.35;;;2.15;;
50355;SDS011;36264;51.296;-0.602;2023-08-21T01:05:07;5.88;;;2.20;;
50355;SDS011;36264;51.296;-0.602;2023-08-21T01:07:33;4.60;;;2.10;;
50355;SDS011;36264;51.296;-0.602;2023-08-21T01:10:11;4.07;;;2.00;;
50355;SDS011;36264;51.296;-0.602;2023-08-21T01:15:37;5.65;;;2.20;;
50355;SDS011;36264;51.296;-0.602;2023-08-21T01:18:04;6.70;;;2.40;;
50355;SDS011;36264;51.296;-0.602;2023-08-21T01:20:30;4.97;;;2.53;;
50355;SDS011;36264;51.296;-0.602;2023-08-21T01:22:56;6.10;;;2.40;;
50355;SDS011;36264;51.296;-0.602;2023-08-21T01:25:21;5.50;;;2.80;;
50355;SDS011;36264;51.296;-0.602;2023-08-21T01:27:48;5.88;;;2.70;;
50355;SDS011;36264;51.296;-0.602;2023-08-21T01:30:14;7.55;;;2.47;;
50355;SDS011;36264;51.296;-0.602;2023-08-21T01:32:48;5.80;;;2.40;;
50355;SDS011;36264;51.296;-0.602;2023-08-21T01:35:21;5.57;;;2.45;;
50355;SDS011;36264;51.296;-0.602;2023-08-21T01:37:47;6.80;;;2.60;;
50355;SDS011;36264;51.296;-0.602;2023-08-21T01:40:19;5.28;;;2.60;;
50355;SDS011;36264;51.296;-0.602;2023-08-21T01:42:46;5.95;;;2.45;;
50355;SDS011;36264;51.296;-0.602;2023-08-21T01:45:11;5.13;;;2.53;;
50355;SDS011;36264;51.296;-0.602;2023-08-21T01:47:36;7.47;;;2.72;;
50355;SDS011;36264;51.296;-0.602;2023-08-21T01:50:02;5.47;;;2.30;;
50355;SDS011;36264;51.296;-0.602;2023-08-21T01:52:27;4.32;;;2.33;;
50355;SDS011;36264;51.296;-0.602;2023-08-21T01:54:53;4.22;;;2.20;;
50355;SDS011;36264;51.296;-0.602;2023-08-21T01:57:18;3.75;;;1.98;;
50355;SDS011;36264;51.296;-0.602;2023-08-21T01:59:44;5.75;;;2.13;;
50355;SDS011;36264;51.296;-0.602;2023-08-21T02:02:09;4.95;;;2.25;;
50355;SDS011;36264;51.296;-0.602;2023-08-21T02:04:34;4.10;;;2.05;;
50355;SDS011;36264;51.296;-0.602;2023-08-21T02:07:00;4.10;;;2.10;;
50355;SDS011;36264;51.296;-0.602;2023-08-21T02:09:25;4.50;;;2.42;;
50355;SDS011;36264;51.296;-0.602;2023-08-21T02:11:51;4.88;;;2.30;;
50355;SDS011;36264;51.296;-0.602;2023-08-21T02:14:16;4.85;;;2.30;;
50355;SDS011;36264;51.296;-0.602;2023-08-21T02:16:42;7.00;;;2.80;;
50355;SDS011;36264;51.296;-0.602;2023-08-21T02:19:07;6.57;;;2.42;;
50355;SDS011;36264;51.296;-0.602;2023-08-21T02:21:34;8.35;;;2.55;;
50355;SDS011;36264;51.296;-0.602;2023-08-21T02:24:01;6.38;;;2.55;;
50355;SDS011;36264;51.296;-0.602;2023-08-21T02:26:26;4.68;;;2.22;;
50355;SDS011;36264;51.296;-0.602;2023-08-21T02:28:51;4.45;;;2.10;;
50355;SDS011;36264;51.296;-0.602;2023-08-21T02:31:17;5.25;;;2.25;;
50355;SDS011;36264;51.296;-0.602;2023-08-21T02:33:42;5.30;;;2.10;;
50355;SDS011;36264;51.296;-0.602;2023-08-21T02:36:08;7.22;;;2.30;;
50355;SDS011;36264;51.296;-0.602;2023-08-21T02:38:33;5.25;;;2.75;;
50355;SDS011;36264;51.296;-0.602;2023-08-21T02:40:59;4.47;;;2.30;;
50355;SDS011;36264;51.296;-0.602;2023-08-21T02:43:24;6.97;;;2.85;;
50355;SDS011;36264;51.296;-0.602;2023-08-21T02:45:49;5.22;;;2.90;;
50355;SDS011;36264;51.296;-0.602;2023-08-21T02:48:15;7.40;;;2.50;;
50355;SDS011;36264;51.296;-0.602;2023-08-21T02:50:40;5.72;;;2.10;;
50355;SDS011;36264;51.296;-0.602;2023-08-21T02:53:06;4.40;;;2.33;;
50355;SDS011;36264;51.296;-0.602;2023-08-21T02:55:32;4.63;;;2.20;;
50355;SDS011;36264;51.296;-0.602;2023-08-21T02:57:57;7.80;;;2.45;;
50355;SDS011;36264;51.296;-0.602;2023-08-21T03:00:23;5.90;;;2.25;;
50355;SDS011;36264;51.296;-0.602;2023-08-21T03:02:48;4.43;;;1.98;;
50355;SDS011;36264;51.296;-0.602;2023-08-21T03:05:14;4.78;;;2.40;;
50355;SDS011;36264;51.296;-0.602;2023-08-21T03:07:39;4.22;;;2.00;;
50355;SDS011;36264;51.296;-0.602;2023-08-21T03:10:05;4.22;;;1.95;;
50355;SDS011;36264;51.296;-0.602;2023-08-21T03:12:32;6.05;;;2.10;;
50355;SDS011;36264;51.296;-0.602;2023-08-21T03:14:57;4.63;;;2.13;;
50355;SDS011;36264;51.296;-0.602;2023-08-21T03:17:23;5.78;;;2.05;;
50355;SDS011;36264;51.296;-0.602;2023-08-21T03:19:49;4.03;;;1.90;;
50355;SDS011;36264;51.296;-0.602;2023-08-21T03:22:14;5.35;;;2.20;;
50355;SDS011;36264;51.296;-0.602;2023-08-21T03:24:40;4.97;;;2.05;;
50355;SDS011;36264;51.296;-0.602;2023-08-21T03:27:05;6.68;;;2.40;;
50355;SDS011;36264;51.296;-0.602;2023-08-21T03:29:30;4.13;;;1.90;;
50355;SDS011;36264;51.296;-0.602;2023-08-21T03:31:56;4.35;;;1.80;;
50355;SDS011;36264;51.296;-0.602;2023-08-21T03:34:21;8.98;;;3.13;;
50355;SDS011;36264;51.296;-0.602;2023-08-21T03:36:47;5.30;;;2.10;;
50355;SDS011;36264;51.296;-0.602;2023-08-21T03:39:12;5.68;;;2.25;;
50355;SDS011;36264;51.296;-0.602;2023-08-21T03:41:38;5.07;;;1.92;;
50355;SDS011;36264;51.296;-0.602;2023-08-21T03:44:03;6.53;;;2.70;;
50355;SDS011;36264;51.296;-0.602;2023-08-21T03:46:29;7.35;;;2.30;;
50355;SDS011;36264;51.296;-0.602;2023-08-21T03:48:54;4.30;;;1.90;;
50355;SDS011;36264;51.296;-0.602;2023-08-21T03:51:19;3.75;;;1.80;;
50355;SDS011;36264;51.296;-0.602;2023-08-21T03:53:45;4.47;;;1.83;;
50355;SDS011;36264;51.296;-0.602;2023-08-21T03:56:10;5.68;;;2.00;;
50355;SDS011;36264;51.296;-0.602;2023-08-21T03:58:36;5.55;;;2.55;;
50355;SDS011;36264;51.296;-0.602;2023-08-21T04:01:01;4.22;;;2.30;;
50355;SDS011;36264;51.296;-0.602;2023-08-21T04:03:27;5.43;;;2.05;;
50355;SDS011;36264;51.296;-0.602;2023-08-21T04:05:55;5.85;;;2.10;;
50355;SDS011;36264;51.296;-0.602;2023-08-21T04:08:21;4.30;;;2.05;;
50355;SDS011;36264;51.296;-0.602;2023-08-21T04:10:47;5.30;;;1.70;;
50355;SDS011;36264;51.296;-0.602;2023-08-21T04:13:13;4.13;;;1.83;;
50355;SDS011;36264;51.296;-0.602;2023-08-21T04:15:38;4.00;;;2.10;;
50355;SDS011;36264;51.296;-0.602;2023-08-21T04:18:04;5.40;;;2.00;;
50355;SDS011;36264;51.296;-0.602;2023-08-21T04:20:30;4.93;;;2.20;;
50355;SDS011;36264;51.296;-0.602;2023-08-21T04:22:56;4.57;;;1.75;;
50355;SDS011;36264;51.296;-0.602;2023-08-21T04:25:21;7.70;;;2.22;;
50355;SDS011;36264;51.296;-0.602;2023-08-21T04:27:47;4.70;;;2.00;;
50355;SDS011;36264;51.296;-0.602;2023-08-21T04:30:12;4.75;;;2.05;;
50355;SDS011;36264;51.296;-0.602;2023-08-21T04:32:38;3.75;;;1.98;;
50355;SDS011;36264;51.296;-0.602;2023-08-21T04:35:03;3.85;;;1.80;;
50355;SDS011;36264;51.296;-0.602;2023-08-21T04:37:30;6.60;;;2.25;;
50355;SDS011;36264;51.296;-0.602;2023-08-21T04:39:56;6.30;;;2.10;;
50355;SDS011;36264;51.296;-0.602;2023-08-21T04:42:21;7.22;;;2.15;;
50355;SDS011;36264;51.296;-0.602;2023-08-21T04:44:47;5.28;;;2.35;;
50355;SDS011;36264;51.296;-0.602;2023-08-21T04:47:22;5.25;;;2.20;;
50355;SDS011;36264;51.296;-0.602;2023-08-21T04:49:49;4.30;;;2.00;;
50355;SDS011;36264;51.296;-0.602;2023-08-21T04:52:16;4.38;;;2.00;;
50355;SDS011;36264;51.296;-0.602;2023-08-21T04:54:42;4.80;;;2.38;;
50355;SDS011;36264;51.296;-0.602;2023-08-21T04:57:07;5.20;;;2.00;;
50355;SDS011;36264;51.296;-0.602;2023-08-21T04:59:33;4.63;;;1.90;;
50355;SDS011;36264;51.296;-0.602;2023-08-21T05:01:59;4.32;;;1.90;;
50355;SDS011;36264;51.296;-0.602;2023-08-21T05:04:25;4.53;;;1.80;;
50355;SDS011;36264;51.296;-0.602;2023-08-21T05:06:50;4.95;;;1.77;;
50355;SDS011;36264;51.296;-0.602;2023-08-21T05:09:15;5.10;;;2.10;;
50355;SDS011;36264;51.296;-0.602;2023-08-21T05:11:41;4.70;;;1.80;;
50355;SDS011;36264;51.296;-0.602;2023-08-21T05:14:06;5.30;;;2.08;;
50355;SDS011;36264;51.296;-0.602;2023-08-21T05:16:31;4.32;;;2.33;;
50355;SDS011;36264;51.296;-0.602;2023-08-21T05:18:57;9.27;;;2.70;;
50355;SDS011;36264;51.296;-0.602;2023-08-21T05:21:22;6.75;;;2.30;;
50355;SDS011;36264;51.296;-0.602;2023-08-21T05:23:48;4.72;;;2.10;;
50355;SDS011;36264;51.296;-0.602;2023-08-21T05:26:13;7.15;;;2.45;;
50355;SDS011;36264;51.296;-0.602;2023-08-21T05:28:38;6.00;;;2.20;;
50355;SDS011;36264;51.296;-0.602;2023-08-21T05:31:04;4.95;;;2.67;;
50355;SDS011;36264;51.296;-0.602;2023-08-21T05:33:29;5.75;;;2.30;;
50355;SDS011;36264;51.296;-0.602;2023-08-21T05:35:56;4.25;;;2.33;;
50355;SDS011;36264;51.296;-0.602;2023-08-21T05:38:21;6.13;;;2.33;;
50355;SDS011;36264;51.296;-0.602;2023-08-21T05:40:47;4.07;;;2.20;;
50355;SDS011;36264;51.296;-0.602;2023-08-21T05:43:13;5.07;;;2.80;;
50355;SDS011;36264;51.296;-0.602;2023-08-21T05:45:38;6.00;;;2.45;;
50355;SDS011;36264;51.296;-0.602;2023-08-21T05:48:04;4.85;;;2.35;;
50355;SDS011;36264;51.296;-0.602;2023-08-21T05:50:29;4.95;;;2.10;;
50355;SDS011;36264;51.296;-0.602;2023-08-21T05:52:55;5.03;;;2.10;;
50355;SDS011;36264;51.296;-0.602;2023-08-21T05:55:22;5.03;;;2.10;;
50355;SDS011;36264;51.296;-0.602;2023-08-21T05:57:48;3.47;;;1.98;;
50355;SDS011;36264;51.296;-0.602;2023-08-21T06:00:13;5.55;;;2.10;;
50355;SDS011;36264;51.296;-0.602;2023-08-21T06:02:39;4.90;;;2.22;;
50355;SDS011;36264;51.296;-0.602;2023-08-21T06:05:05;5.20;;;2.05;;
50355;SDS011;36264;51.296;-0.602;2023-08-21T06:07:32;5.13;;;2.40;;
50355;SDS011;36264;51.296;-0.602;2023-08-21T06:09:57;4.55;;;2.10;;
50355;SDS011;36264;51.296;-0.602;2023-08-21T06:12:22;4.28;;;2.00;;
50355;SDS011;36264;51.296;-0.602;2023-08-21T06:14:48;3.45;;;1.77;;
50355;SDS011;36264;51.296;-0.602;2023-08-21T06:17:13;3.42;;;1.80;;
50355;SDS011;36264;51.296;-0.602;2023-08-21T06:19:38;4.90;;;2.10;;
50355;SDS011;36264;51.296;-0.602;2023-08-21T06:22:04;4.05;;;1.98;;
50355;SDS011;36264;51.296;-0.602;2023-08-21T06:24:30;5.95;;;2.22;;
50355;SDS011;36264;51.296;-0.602;2023-08-21T06:26:55;4.72;;;2.38;;
50355;SDS011;36264;51.296;-0.602;2023-08-21T06:29:21;3.65;;;1.73;;
50355;SDS011;36264;51.296;-0.602;2023-08-21T06:31:46;3.83;;;1.73;;
50355;SDS011;36264;51.296;-0.602;2023-08-21T06:34:12;3.55;;;1.98;;
50355;SDS011;36264;51.296;-0.602;2023-08-21T06:36:37;5.25;;;2.65;;
50355;SDS011;36264;51.296;-0.602;2023-08-21T06:39:02;5.25;;;2.20;;
50355;SDS011;36264;51.296;-0.602;2023-08-21T06:41:30;4.35;;;1.92;;
50355;SDS011;36264;51.296;-0.602;2023-08-21T06:43:57;2.95;;;1.80;;
50355;SDS011;36264;51.296;-0.602;2023-08-21T06:46:22;4.80;;;2.20;;
50355;SDS011;36264;51.296;-0.602;2023-08-21T06:48:48;5.57;;;2.65;;
50355;SDS011;36264;51.296;-0.602;2023-08-21T06:51:15;6.82;;;2.60;;
50355;SDS011;36264;51.296;-0.602;2023-08-21T06:53:41;4.78;;;1.80;;
50355;SDS011;36264;51.296;-0.602;2023-08-21T06:56:06;4.28;;;1.90;;
50355;SDS011;36264;51.296;-0.602;2023-08-21T06:58:32;2.70;;;1.58;;
50355;SDS011;36264;51.296;-0.602;2023-08-21T07:00:57;3.08;;;1.80;;
50355;SDS011;36264;51.296;-0.602;2023-08-21T07:03:23;3.10;;;1.60;;
50355;SDS011;36264;51.296;-0.602;2023-08-21T07:05:58;2.47;;;1.40;;
50355;SDS011;36264;51.296;-0.602;2023-08-21T07:08:24;3.40;;;1.50;;
50355;SDS011;36264;51.296;-0.602;2023-08-21T07:10:50;2.88;;;1.35;;
50355;SDS011;36264;51.296;-0.602;2023-08-21T07:13:16;3.20;;;1.60;;
50355;SDS011;36264;51.296;-0.602;2023-08-21T07:15:41;4.50;;;1.67;;
50355;SDS011;36264;51.296;-0.602;2023-08-21T07:18:06;5.50;;;1.73;;
50355;SDS011;36264;51.296;-0.602;2023-08-21T07:20:33;2.65;;;1.35;;
50355;SDS011;36264;51.296;-0.602;2023-08-21T07:22:58;2.67;;;1.50;;
50355;SDS011;36264;51.296;-0.602;2023-08-21T07:25:24;4.05;;;1.60;;
50355;SDS011;36264;51.296;-0.602;2023-08-21T07:27:50;2.00;;;1.40;;
50355;SDS011;36264;51.296;-0.602;2023-08-21T07:30:18;3.42;;;1.40;;
50355;SDS011;36264;51.296;-0.602;2023-08-21T07:32:43;3.38;;;1.50;;
50355;SDS011;36264;51.296;-0.602;2023-08-21T07:35:09;3.50;;;1.50;;
50355;SDS011;36264;51.296;-0.602;2023-08-21T07:37:35;3.03;;;1.40;;
50355;SDS011;36264;51.296;-0.602;2023-08-21T07:40:00;3.45;;;1.40;;
50355;SDS011;36264;51.296;-0.602;2023-08-21T07:42:27;2.50;;;1.30;;
50355;SDS011;36264;51.296;-0.602;2023-08-21T07:44:52;2.60;;;1.38;;
50355;SDS011;36264;51.296;-0.602;2023-08-21T07:47:17;2.58;;;1.40;;
50355;SDS011;36264;51.296;-0.602;2023-08-21T07:49:43;4.18;;;1.60;;
50355;SDS011;36264;51.296;-0.602;2023-08-21T07:52:08;2.33;;;1.40;;
50355;SDS011;36264;51.296;-0.602;2023-08-21T07:54:33;3.13;;;1.40;;
50355;SDS011;36264;51.296;-0.602;2023-08-21T07:56:59;2.80;;;1.27;;
50355;SDS011;36264;51.296;-0.602;2023-08-21T07:59:24;3.90;;;1.50;;
50355;SDS011;36264;51.296;-0.602;2023-08-21T08:01:50;3.53;;;1.45;;
50355;SDS011;36264;51.296;-0.602;2023-08-21T08:04:15;2.03;;;1.40;;
50355;SDS011;36264;51.296;-0.602;2023-08-21T08:06:41;3.38;;;1.52;;
50355;SDS011;36264;51.296;-0.602;2023-08-21T08:09:07;2.97;;;1.50;;
50355;SDS011;36264;51.296;-0.602;2023-08-21T08:11:32;3.55;;;1.70;;
50355;SDS011;36264;51.296;-0.602;2023-08-21T08:13:58;3.72;;;1.60;;
50355;SDS011;36264;51.296;-0.602;2023-08-21T08:16:23;5.22;;;1.60;;
50355;SDS011;36264;51.296;-0.602;2023-08-21T08:18:49;5.82;;;1.85;;
50355;SDS011;36264;51.296;-0.602;2023-08-21T08:21:14;4.25;;;1.50;;
50355;SDS011;36264;51.296;-0.602;2023-08-21T08:23:40;3.50;;;1.40;;
50355;SDS011;36264;51.296;-0.602;2023-08-21T08:26:05;4.38;;;1.70;;
50355;SDS011;36264;51.296;-0.602;2023-08-21T08:28:30;4.43;;;1.50;;
50355;SDS011;36264;51.296;-0.602;2023-08-21T08:30:56;4.28;;;1.73;;
50355;SDS011;36264;51.296;-0.602;2023-08-21T08:33:22;4.00;;;1.42;;
50355;SDS011;36264;51.296;-0.602;2023-08-21T08:35:48;4.13;;;1.50;;
50355;SDS011;36264;51.296;-0.602;2023-08-21T08:38:14;3.80;;;1.50;;
50355;SDS011;36264;51.296;-0.602;2023-08-21T08:40:43;2.55;;;1.70;;
50355;SDS011;36264;51.296;-0.602;2023-08-21T08:43:11;3.60;;;1.70;;
50355;SDS011;36264;51.296;-0.602;2023-08-21T08:45:37;6.30;;;1.70;;
50355;SDS011;36264;51.296;-0.602;2023-08-21T08:48:03;3.72;;;1.60;;
50355;SDS011;36264;51.296;-0.602;2023-08-21T08:50:30;4.95;;;1.67;;
50355;SDS011;36264;51.296;-0.602;2023-08-21T08:52:56;3.28;;;1.45;;
50355;SDS011;36264;51.296;-0.602;2023-08-21T08:55:24;5.13;;;1.90;;
50355;SDS011;36264;51.296;-0.602;2023-08-21T08:57:50;3.72;;;1.50;;
50355;SDS011;36264;51.296;-0.602;2023-08-21T09:00:17;2.92;;;1.48;;
50355;SDS011;36264;51.296;-0.602;2023-08-21T09:02:42;3.42;;;1.52;;
50355;SDS011;36264;51.296;-0.602;2023-08-21T09:05:08;6.07;;;1.30;;
50355;SDS011;36264;51.296;-0.602;2023-08-21T09:07:34;3.83;;;1.95;;
50355;SDS011;36264;51.296;-0.602;2023-08-21T09:10:00;4.40;;;1.80;;
50355;SDS011;36264;51.296;-0.602;2023-08-21T09:12:25;3.60;;;1.25;;
50355;SDS011;36264;51.296;-0.602;2023-08-21T09:14:51;3.35;;;1.45;;
50355;SDS011;36264;51.296;-0.602;2023-08-21T09:17:16;3.03;;;1.35;;
50355;SDS011;36264;51.296;-0.602;2023-08-21T09:19:42;3.25;;;1.48;;
50355;SDS011;36264;51.296;-0.602;2023-08-21T09:22:08;4.93;;;1.58;;
50355;SDS011;36264;51.296;-0.602;2023-08-21T09:27:39;2.38;;;1.40;;
50355;SDS011;36264;51.296;-0.602;2023-08-21T09:30:10;3.72;;;1.50;;
50355;SDS011;36264;51.296;-0.602;2023-08-21T09:32:58;3.97;;;1.42;;
50355;SDS011;36264;51.296;-0.602;2023-08-21T09:35:25;3.50;;;1.38;;
50355;SDS011;36264;51.296;-0.602;2023-08-21T09:37:51;3.58;;;1.60;;
50355;SDS011;36264;51.296;-0.602;2023-08-21T09:40:20;5.25;;;1.80;;
50355;SDS011;36264;51.296;-0.602;2023-08-21T09:42:51;2.95;;;1.52;;
50355;SDS011;36264;51.296;-0.602;2023-08-21T09:45:24;3.08;;;1.60;;
50355;SDS011;36264;51.296;-0.602;2023-08-21T09:47:51;3.65;;;1.65;;
50355;SDS011;36264;51.296;-0.602;2023-08-21T09:50:17;5.15;;;1.60;;
50355;SDS011;36264;51.296;-0.602;2023-08-21T09:52:43;2.70;;;1.50;;
50355;SDS011;36264;51.296;-0.602;2023-08-21T09:55:09;3.20;;;1.40;;
50355;SDS011;36264;51.296;-0.602;2023-08-21T09:57:35;2.90;;;1.33;;
50355;SDS011;36264;51.296;-0.602;2023-08-21T10:00:02;3.28;;;1.30;;
50355;SDS011;36264;51.296;-0.602;2023-08-21T10:02:40;3.25;;;1.48;;
50355;SDS011;36264;51.296;-0.602;2023-08-21T10:05:07;2.85;;;1.40;;
50355;SDS011;36264;51.296;-0.602;2023-08-21T10:07:34;3.75;;;1.70;;
50355;SDS011;36264;51.296;-0.602;2023-08-21T10:09:59;3.90;;;1.77;;
50355;SDS011;36264;51.296;-0.602;2023-08-21T10:12:25;4.90;;;1.80;;
50355;SDS011;36264;51.296;-0.602;2023-08-21T10:14:51;5.70;;;1.70;;
50355;SDS011;36264;51.296;-0.602;2023-08-21T10:17:17;3.78;;;1.70;;
50355;SDS011;36264;51.296;-0.602;2023-08-21T10:19:47;3.47;;;1.55;;
50355;SDS011;36264;51.296;-0.602;2023-08-21T10:22:20;4.68;;;1.60;;
50355;SDS011;36264;51.296;-0.602;2023-08-21T10:25:03;5.05;;;1.70;;
50355;SDS011;36264;51.296;-0.602;2023-08-21T10:27:29;2.60;;;1.52;;
50355;SDS011;36264;51.296;-0.602;2023-08-21T10:29:58;4.38;;;1.63;;
50355;SDS011;36264;51.296;-0.602;2023-08-21T10:32:24;3.40;;;1.88;;
50355;SDS011;36264;51.296;-0.602;2023-08-21T10:34:53;4.25;;;2.17;;
50355;SDS011;36264;51.296;-0.602;2023-08-21T10:37:19;3.13;;;1.77;;
50355;SDS011;36264;51.296;-0.602;2023-08-21T10:39:56;3.22;;;1.63;;
50355;SDS011;36264;51.296;-0.602;2023-08-21T10:42:36;3.55;;;1.52;;
50355;SDS011;36264;51.296;-0.602;2023-08-21T10:45:10;3.38;;;1.77;;
50355;SDS011;36264;51.296;-0.602;2023-08-21T10:47:36;5.30;;;1.80;;
50355;SDS011;36264;51.296;-0.602;2023-08-21T10:50:03;4.53;;;1.80;;
50355;SDS011;36264;51.296;-0.602;2023-08-21T10:52:37;3.85;;;1.95;;
50355;SDS011;36264;51.296;-0.602;2023-08-21T10:55:07;3.90;;;1.70;;
50355;SDS011;36264;51.296;-0.602;2023-08-21T10:57:34;4.13;;;2.45;;
50355;SDS011;36264;51.296;-0.602;2023-08-21T11:02:30;6.22;;;2.28;;
50355;SDS011;36264;51.296;-0.602;2023-08-21T11:04:57;6.05;;;2.58;;
50355;SDS011;36264;51.296;-0.602;2023-08-21T11:07:27;4.55;;;2.28;;
50355;SDS011;36264;51.296;-0.602;2023-08-21T11:09:53;4.78;;;2.60;;
50355;SDS011;36264;51.296;-0.602;2023-08-21T11:12:20;5.82;;;2.38;;
50355;SDS011;36264;51.296;-0.602;2023-08-21T11:14:47;5.18;;;2.50;;
50355;SDS011;36264;51.296;-0.602;2023-08-21T11:17:14;3.88;;;2.20;;
50355;SDS011;36264;51.296;-0.602;2023-08-21T11:19:39;3.15;;;2.03;;
50355;SDS011;36264;51.296;-0.602;2023-08-21T11:22:06;3.70;;;2.08;;
50355;SDS011;36264;51.296;-0.602;2023-08-21T11:27:06;3.65;;;1.70;;
50355;SDS011;36264;51.296;-0.602;2023-08-21T11:29:37;3.58;;;1.77;;
50355;SDS011;36264;51.296;-0.602;2023-08-21T11:32:10;4.53;;;1.60;;
50355;SDS011;36264;51.296;-0.602;2023-08-21T11:34:47;2.92;;;1.40;;
50355;SDS011;36264;51.296;-0.602;2023-08-21T11:37:19;4.15;;;1.60;;
50355;SDS011;36264;51.296;-0.602;2023-08-21T11:39:47;4.47;;;1.70;;
50355;SDS011;36264;51.296;-0.602;2023-08-21T11:42:14;2.67;;;1.48;;
50355;SDS011;36264;51.296;-0.602;2023-08-21T11:44:40;3.72;;;1.70;;
50355;SDS011;36264;51.296;-0.602;2023-08-21T11:47:11;2.28;;;1.27;;
50355;SDS011;36264;51.296;-0.602;2023-08-21T11:49:39;2.85;;;1.55;;
50355;SDS011;36264;51.296;-0.602;2023-08-21T11:52:06;3.08;;;1.52;;
50355;SDS011;36264;51.296;-0.602;2023-08-21T11:54:36;2.55;;;1.30;;
50355;SDS011;36264;51.296;-0.602;2023-08-21T11:57:06;4.63;;;1.60;;
50355;SDS011;36264;51.296;-0.602;2023-08-21T11:59:32;3.22;;;1.60;;
50355;SDS011;36264;51.296;-0.602;2023-08-21T12:01:58;4.28;;;1.60;;
50355;SDS011;36264;51.296;-0.602;2023-08-21T12:04:23;2.15;;;1.52;;
50355;SDS011;36264;51.296;-0.602;2023-08-21T12:06:49;4.05;;;1.40;;
50355;SDS011;36264;51.296;-0.602;2023-08-21T12:09:14;3.13;;;1.67;;
50355;SDS011;36264;51.296;-0.602;2023-08-21T12:11:40;3.63;;;1.70;;
50355;SDS011;36264;51.296;-0.602;2023-08-21T12:14:05;3.55;;;1.92;;
50355;SDS011;36264;51.296;-0.602;2023-08-21T12:16:31;5.53;;;2.10;;
50355;SDS011;36264;51.296;-0.602;2023-08-21T12:18:56;4.75;;;2.35;;
50355;SDS011;36264;51.296;-0.602;2023-08-21T12:21:23;4.93;;;1.90;;
50355;SDS011;36264;51.296;-0.602;2023-08-21T12:23:48;4.30;;;2.25;;
50355;SDS011;36264;51.296;-0.602;2023-08-21T12:26:14;3.88;;;2.00;;
50355;SDS011;36264;51.296;-0.602;2023-08-21T12:28:46;3.58;;;1.95;;
50355;SDS011;36264;51.296;-0.602;2023-08-21T12:31:15;3.65;;;2.20;;
50355;SDS011;36264;51.296;-0.602;2023-08-21T12:33:40;3.92;;;2.30;;
50355;SDS011;36264;51.296;-0.602;2023-08-21T12:36:06;4.80;;;2.40;;
50355;SDS011;36264;51.296;-0.602;2023-08-21T12:38:33;5.28;;;2.60;;
50355;SDS011;36264;51.296;-0.602;2023-08-21T12:40:59;4.22;;;2.53;;
50355;SDS011;36264;51.296;-0.602;2023-08-21T12:43:24;4.07;;;2.67;;
50355;SDS011;36264;51.296;-0.602;2023-08-21T12:45:50;4.35;;;2.50;;
50355;SDS011;36264;51.296;-0.602;2023-08-21T12:48:15;5.15;;;2.65;;
50355;SDS011;36264;51.296;-0.602;2023-08-21T12:50:41;4.60;;;2.80;;
50355;SDS011;36264;51.296;-0.602;2023-08-21T12:53:06;4.53;;;2.70;;
50355;SDS011;36264;51.296;-0.602;2023-08-21T12:55:31;4.45;;;2.65;;
50355;SDS011;36264;51.296;-0.602;2023-08-21T12:57:57;6.75;;;2.58;;
50355;SDS011;36264;51.296;-0.602;2023-08-21T13:00:22;5.75;;;3.00;;
50355;SDS011;36264;51.296;-0.602;2023-08-21T13:02:48;7.78;;;3.60;;
50355;SDS011;36264;51.296;-0.602;2023-08-21T13:05:13;4.50;;;2.92;;
50355;SDS011;36264;51.296;-0.602;2023-08-21T13:07:39;5.30;;;3.00;;
50355;SDS011;36264;51.296;-0.602;2023-08-21T13:10:06;5.88;;;3.53;;
50355;SDS011;36264;51.296;-0.602;2023-08-21T13:12:32;5.13;;;3.30;;
50355;SDS011;36264;51.296;-0.602;2023-08-21T13:14:57;4.47;;;3.13;;
50355;SDS011;36264;51.296;-0.602;2023-08-21T13:17:23;5.00;;;2.65;;
50355;SDS011;36264;51.296;-0.602;2023-08-21T13:19:49;4.78;;;3.00;;
50355;SDS011;36264;51.296;-0.602;2023-08-21T13:22:16;4.75;;;2.30;;
50355;SDS011;36264;51.296;-0.602;2023-08-21T13:24:42;5.90;;;3.05;;
50355;SDS011;36264;51.296;-0.602;2023-08-21T13:27:07;10.55;;;3.20;;
50355;SDS011;36264;51.296;-0.602;2023-08-21T13:29:32;5.00;;;2.80;;
50355;SDS011;36264;51.296;-0.602;2023-08-21T13:31:58;5.70;;;2.78;;
50355;SDS011;36264;51.296;-0.602;2023-08-21T13:34:23;4.25;;;2.25;;
50355;SDS011;36264;51.296;-0.602;2023-08-21T13:36:49;4.63;;;2.30;;
50355;SDS011;36264;51.296;-0.602;2023-08-21T13:39:15;3.67;;;2.22;;
50355;SDS011;36264;51.296;-0.602;2023-08-21T13:41:41;4.00;;;2.13;;
50355;SDS011;36264;51.296;-0.602;2023-08-21T13:44:06;4.38;;;2.03;;
50355;SDS011;36264;51.296;-0.602;2023-08-21T13:46:33;3.60;;;2.10;;
50355;SDS011;36264;51.296;-0.602;2023-08-21T13:48:59;4.20;;;2.30;;
50355;SDS011;36264;51.296;-0.602;2023-08-21T13:51:24;3.28;;;2.00;;
50355;SDS011;36264;51.296;-0.602;2023-08-21T13:53:50;3.53;;;2.28;;
50355;SDS011;36264;51.296;-0.602;2023-08-21T13:56:15;3.70;;;2.20;;
50355;SDS011;36264;51.296;-0.602;2023-08-21T13:58:41;4.55;;;2.22;;
50355;SDS011;36264;51.296;-0.602;2023-08-21T14:01:06;4.32;;;2.38;;
50355;SDS011;36264;51.296;-0.602;2023-08-21T14:03:33;4.65;;;2.47;;
50355;SDS011;36264;51.296;-0.602;2023-08-21T14:05:58;4.22;;;2.17;;
50355;SDS011;36264;51.296;-0.602;2023-08-21T14:08:24;4.72;;;2.15;;
50355;SDS011;36264;51.296;-0.602;2023-08-21T14:10:49;5.15;;;2.30;;
50355;SDS011;36264;51.296;-0.602;2023-08-21T14:13:15;4.50;;;2.22;;
50355;SDS011;36264;51.296;-0.602;2023-08-21T14:15:40;4.57;;;2.45;;
50355;SDS011;36264;51.296;-0.602;2023-08-21T14:18:05;4.68;;;2.42;;
50355;SDS011;36264;51.296;-0.602;2023-08-21T14:20:31;4.43;;;2.40;;
50355;SDS011;36264;51.296;-0.602;2023-08-21T14:22:56;4.32;;;2.40;;
50355;SDS011;36264;51.296;-0.602;2023-08-21T14:25:22;3.90;;;2.20;;
50355;SDS011;36264;51.296;-0.602;2023-08-21T14:27:47;5.70;;;2.60;;
50355;SDS011;36264;51.296;-0.602;2023-08-21T14:30:14;4.15;;;2.40;;
50355;SDS011;36264;51.296;-0.602;2023-08-21T14:32:39;4.40;;;2.90;;
50355;SDS011;36264;51.296;-0.602;2023-08-21T14:35:05;4.45;;;2.40;;
50355;SDS011;36264;51.296;-0.602;2023-08-21T14:37:34;3.92;;;2.30;;
50355;SDS011;36264;51.296;-0.602;2023-08-21T14:40:04;5.35;;;2.63;;